Time;durP1;ratioP1;P1;durP2;ratioP2;P2;SDS_P1;SDS_P2;PMS_P1;PMS_P2;Temp;Humidity;BMP_temperature;BMP_pressure;BME280_temperature;BME280_humidity;BME280_pressure;Samples;Min_cycle;Max_cycle;Signal;HPM_P1;HPM_P2
2023/08/24 00:02:02;;;;;;;7.20;4.83;;;16.10;99.90;;;;;;4992771;28;20560;-66
2023/08/24 00:04:28;;;;;;;6.30;3.97;;;16.20;99.90;;;;;;4992586;28;20573;-67
2023/08/24 00:06:54;;;;;;;8.60;4.10;;;16.10;99.90;;;;;;4992000;28;20181;-67
2023/08/24 00:09:20;;;;;;;10.23;4.40;;;16.00;99.90;;;;;;4992384;28;20271;-67
2023/08/24 00:11:46;;;;;;;10.53;4.70;;;16.00;99.90;;;;;;4992560;28;20193;-66
2023/08/24 00:14:12;;;;;;;10.17;4.50;;;16.00;99.90;;;;;;4992484;28;20639;-66
2023/08/24 00:16:38;;;;;;;7.23;4.23;;;15.90;99.90;;;;;;4991073;28;20184;-66
2023/08/24 00:19:04;;;;;;;10.47;4.23;;;16.00;99.90;;;;;;4991738;28;20581;-66
2023/08/24 00:21:30;;;;;;;9.03;4.00;;;15.90;99.90;;;;;;4992332;28;20177;-67
2023/08/24 00:23:55;;;;;;;12.73;4.30;;;15.90;99.90;;;;;;4992372;28;20185;-67
2023/08/24 00:26:21;;;;;;;9.43;4.40;;;15.80;99.90;;;;;;4992568;28;20204;-67
2023/08/24 00:28:47;;;;;;;6.87;4.50;;;15.90;99.90;;;;;;4989809;28;20948;-67
2023/08/24 00:31:14;;;;;;;7.03;4.40;;;15.80;99.90;;;;;;4992230;28;20567;-67
2023/08/24 00:33:40;;;;;;;10.47;4.70;;;15.80;99.90;;;;;;4992131;28;20639;-66
2023/08/24 00:36:06;;;;;;;7.63;4.33;;;15.60;99.90;;;;;;4992255;28;20311;-67
2023/08/24 00:38:32;;;;;;;7.17;4.03;;;15.60;99.90;;;;;;4989928;28;20729;-66
2023/08/24 00:40:58;;;;;;;9.40;4.60;;;15.60;99.90;;;;;;4992117;28;20184;-66
2023/08/24 00:43:25;;;;;;;8.83;4.90;;;15.50;99.90;;;;;;4991850;28;20665;-67
2023/08/24 00:45:53;;;;;;;6.37;4.33;;;15.50;99.90;;;;;;4991828;28;20199;-66
2023/08/24 00:48:20;;;;;;;6.67;4.73;;;15.50;99.90;;;;;;4990981;28;20291;-67
2023/08/24 00:50:45;;;;;;;8.87;4.70;;;15.40;99.90;;;;;;4991966;28;20627;-66
2023/08/24 00:53:12;;;;;;;10.90;4.40;;;15.40;99.90;;;;;;4991852;28;20188;-66
2023/08/24 00:55:38;;;;;;;7.63;4.83;;;15.40;99.90;;;;;;4991708;28;20185;-66
2023/08/24 00:58:04;;;;;;;8.40;4.67;;;15.40;99.90;;;;;;4990982;28;20287;-66
2023/08/24 01:00:29;;;;;;;5.53;4.27;;;15.40;99.90;;;;;;4991851;28;20189;-67
2023/08/24 01:02:55;;;;;;;6.33;4.10;;;15.40;99.90;;;;;;4991669;28;20271;-66
2023/08/24 01:05:21;;;;;;;7.90;4.10;;;15.40;99.90;;;;;;4991566;28;20201;-67
2023/08/24 01:07:47;;;;;;;6.07;4.33;;;15.40;99.90;;;;;;4990870;28;20269;-66
2023/08/24 01:10:13;;;;;;;9.10;4.40;;;15.40;99.90;;;;;;4991637;28;20173;-66
2023/08/24 01:12:51;;;;;;;9.10;4.43;;;15.40;99.90;;;;;;4991566;28;20196;-67
2023/08/24 01:15:37;;;;;;;9.57;4.43;;;15.30;99.90;;;;;;4991650;28;20176;-67
2023/08/24 01:18:10;;;;;;;10.20;5.03;;;15.30;99.90;;;;;;4990728;28;20642;-67
2023/08/24 01:20:37;;;;;;;6.20;4.40;;;15.30;99.90;;;;;;4991631;28;20178;-66
2023/08/24 01:23:03;;;;;;;6.03;4.50;;;15.20;99.90;;;;;;4991694;28;20208;-67
2023/08/24 01:25:38;;;;;;;8.93;5.20;;;15.20;99.90;;;;;;4991326;28;20605;-66
2023/08/24 01:28:06;;;;;;;16.33;5.27;;;15.30;99.90;;;;;;4990573;28;20578;-66
2023/08/24 01:30:34;;;;;;;8.87;4.60;;;15.20;99.90;;;;;;4991246;28;20231;-66
2023/08/24 01:33:02;;;;;;;8.87;4.80;;;15.30;99.90;;;;;;4991306;28;20269;-67
2023/08/24 01:35:28;;;;;;;9.70;4.37;;;15.20;99.90;;;;;;4991350;28;20178;-66
2023/08/24 01:37:53;;;;;;;6.13;4.50;;;15.20;99.90;;;;;;4990490;28;20181;-67
2023/08/24 01:40:26;;;;;;;8.83;4.53;;;15.20;99.90;;;;;;4990224;28;20597;-66
2023/08/24 01:42:57;;;;;;;13.43;4.60;;;15.10;99.90;;;;;;4991548;28;20169;-66
2023/08/24 01:45:29;;;;;;;5.97;4.87;;;15.10;99.90;;;;;;4991326;28;20224;-66
2023/08/24 01:47:55;;;;;;;6.13;4.53;;;15.00;99.90;;;;;;4990548;28;20199;-66
2023/08/24 01:50:22;;;;;;;9.70;4.30;;;15.00;99.90;;;;;;4992889;28;20594;-66
2023/08/24 01:52:48;;;;;;;10.80;4.40;;;15.10;99.90;;;;;;4995417;28;20222;-67
2023/08/24 01:55:15;;;;;;;7.83;4.60;;;15.10;99.90;;;;;;4995080;28;20189;-66
2023/08/24 01:57:40;;;;;;;7.07;4.47;;;15.10;99.90;;;;;;4994570;28;20185;-66
2023/08/24 02:00:07;;;;;;;9.67;4.60;;;15.10;99.90;;;;;;4994948;28;20891;-66
2023/08/24 02:02:35;;;;;;;10.10;4.50;;;15.00;99.90;;;;;;4994862;28;20655;-66
2023/08/24 02:05:01;;;;;;;8.07;4.60;;;15.00;99.90;;;;;;4994772;28;20195;-66
2023/08/24 02:07:26;;;;;;;11.03;4.30;;;15.10;99.90;;;;;;4994223;28;20173;-66
2023/08/24 02:09:52;;;;;;;8.23;4.70;;;15.10;99.90;;;;;;5009693;28;20217;-66
2023/08/24 02:12:17;;;;;;;11.00;4.60;;;15.00;99.90;;;;;;4994830;28;20212;-66
2023/08/24 02:14:43;;;;;;;8.77;4.60;;;15.00;99.90;;;;;;4994774;28;20234;-66
2023/08/24 02:17:08;;;;;;;10.47;3.97;;;15.00;99.90;;;;;;4994069;28;20686;-66
2023/08/24 02:19:34;;;;;;;7.30;4.30;;;15.00;99.90;;;;;;4994383;28;20207;-67
2023/08/24 02:22:00;;;;;;;9.40;4.83;;;15.00;99.90;;;;;;4994625;28;20184;-66
2023/08/24 02:24:25;;;;;;;12.70;4.73;;;15.00;99.90;;;;;;4994553;28;20267;-66
2023/08/24 02:26:51;;;;;;;9.90;4.23;;;15.00;99.90;;;;;;4994024;28;20193;-66
2023/08/24 02:29:16;;;;;;;6.37;4.23;;;14.90;99.90;;;;;;4994142;28;20629;-66
2023/08/24 02:31:42;;;;;;;6.23;4.03;;;14.90;99.90;;;;;;4994410;28;20189;-66
2023/08/24 02:34:07;;;;;;;7.70;4.40;;;14.90;99.90;;;;;;4994183;28;20231;-66
2023/08/24 02:36:33;;;;;;;11.13;4.47;;;14.90;99.90;;;;;;4994575;28;20218;-66
2023/08/24 02:39:02;;;;;;;9.40;4.70;;;14.90;99.90;;;;;;4993556;28;20197;-66
2023/08/24 02:41:27;;;;;;;8.70;4.67;;;14.90;99.90;;;;;;4994339;28;20182;-66
2023/08/24 02:43:53;;;;;;;6.33;4.47;;;14.90;99.90;;;;;;4994304;28;20185;-66
2023/08/24 02:46:20;;;;;;;8.23;4.63;;;14.90;99.90;;;;;;4994248;28;20192;-66
2023/08/24 02:48:46;;;;;;;6.37;4.70;;;14.80;99.90;;;;;;4993103;28;20213;-66
2023/08/24 02:51:13;;;;;;;9.87;4.77;;;14.80;99.90;;;;;;4994149;28;20263;-66
2023/08/24 02:53:38;;;;;;;6.43;4.60;;;14.90;99.90;;;;;;4994005;28;20192;-66
2023/08/24 02:56:04;;;;;;;6.93;4.50;;;14.80;99.90;;;;;;4994074;28;20243;-66
2023/08/24 02:58:30;;;;;;;8.97;4.60;;;14.80;99.90;;;;;;4993246;28;20207;-66
2023/08/24 03:00:56;;;;;;;8.73;4.77;;;14.80;99.90;;;;;;4993727;28;20181;-66
2023/08/24 03:03:22;;;;;;;8.20;4.50;;;14.90;99.90;;;;;;4993727;28;20286;-67
2023/08/24 03:06:03;;;;;;;6.97;4.53;;;14.80;99.90;;;;;;4993863;28;20180;-66
2023/08/24 03:08:31;;;;;;;10.60;4.40;;;14.80;99.90;;;;;;4993136;28;20240;-66
2023/08/24 03:10:57;;;;;;;14.43;4.43;;;14.90;99.90;;;;;;4994010;28;20185;-66
2023/08/24 03:13:23;;;;;;;9.63;4.57;;;14.90;99.90;;;;;;4993678;28;20190;-66
2023/08/24 03:15:49;;;;;;;6.47;4.50;;;14.90;99.90;;;;;;4992678;28;20169;-66
2023/08/24 03:18:16;;;;;;;9.97;4.83;;;14.90;99.90;;;;;;4992697;28;20259;-66
2023/08/24 03:20:43;;;;;;;10.70;4.83;;;14.90;99.90;;;;;;4993521;28;20193;-66
2023/08/24 03:23:09;;;;;;;7.23;4.43;;;14.90;99.90;;;;;;4993424;28;20180;-66
2023/08/24 03:25:39;;;;;;;5.90;4.30;;;14.90;99.90;;;;;;4993748;28;20187;-66
2023/08/24 03:28:06;;;;;;;15.87;4.60;;;15.00;99.90;;;;;;4992515;28;20216;-66
2023/08/24 03:30:33;;;;;;;6.67;5.00;;;15.00;99.90;;;;;;4993259;28;20182;-66
2023/08/24 03:32:59;;;;;;;7.07;4.80;;;15.00;99.90;;;;;;4993252;28;20189;-66
2023/08/24 03:35:25;;;;;;;9.03;4.63;;;15.00;99.90;;;;;;4993492;28;20239;-66
2023/08/24 03:37:51;;;;;;;8.97;5.13;;;15.00;99.90;;;;;;4992487;28;20680;-66
2023/08/24 03:40:16;;;;;;;14.97;5.20;;;15.00;99.90;;;;;;4993239;28;20185;-66
2023/08/24 03:42:42;;;;;;;9.20;5.70;;;15.10;99.90;;;;;;4993060;28;20185;-66
2023/08/24 03:45:08;;;;;;;8.53;5.50;;;15.20;99.90;;;;;;4993119;28;20188;-66
2023/08/24 03:47:34;;;;;;;7.57;5.00;;;15.20;99.90;;;;;;4992526;28;20570;-67
2023/08/24 03:49:59;;;;;;;9.77;5.33;;;15.20;99.90;;;;;;4992788;28;20657;-66
2023/08/24 03:52:25;;;;;;;7.50;5.30;;;15.20;99.90;;;;;;4992918;28;20598;-66
2023/08/24 03:54:51;;;;;;;12.07;5.57;;;15.20;99.90;;;;;;4992958;28;20414;-66
2023/08/24 03:57:16;;;;;;;9.17;4.87;;;15.20;99.90;;;;;;4992233;28;20181;-66
2023/08/24 03:59:42;;;;;;;7.33;5.03;;;15.30;99.90;;;;;;4992700;28;20235;-66
2023/08/24 04:02:07;;;;;;;6.70;4.73;;;15.30;99.90;;;;;;4992808;28;20185;-66
2023/08/24 04:04:33;;;;;;;9.30;5.13;;;15.30;99.90;;;;;;4992608;28;20603;-66
2023/08/24 04:06:59;;;;;;;8.93;4.83;;;15.30;99.90;;;;;;4991992;28;20189;-66
2023/08/24 04:09:24;;;;;;;7.27;4.90;;;15.30;99.90;;;;;;4992470;28;20244;-66
2023/08/24 04:11:50;;;;;;;9.20;4.70;;;15.20;99.90;;;;;;4992407;28;20181;-66
2023/08/24 04:14:15;;;;;;;9.70;4.83;;;15.20;99.90;;;;;;4990457;28;20246;-66
2023/08/24 04:16:41;;;;;;;8.23;4.87;;;15.30;99.90;;;;;;4992446;28;20265;-66
2023/08/24 04:19:08;;;;;;;7.20;4.63;;;15.20;99.90;;;;;;4992086;28;20201;-66
2023/08/24 04:21:33;;;;;;;10.63;4.93;;;15.30;99.90;;;;;;4992451;28;20184;-66
2023/08/24 04:23:59;;;;;;;8.63;4.80;;;15.20;99.90;;;;;;4992402;28;20181;-66
2023/08/24 04:26:24;;;;;;;12.00;5.10;;;15.30;99.90;;;;;;4992321;28;20264;-66
2023/08/24 04:28:50;;;;;;;7.57;5.20;;;15.30;99.90;;;;;;4991229;28;20721;-66
2023/08/24 04:31:16;;;;;;;7.50;4.90;;;15.30;99.90;;;;;;4992253;28;20648;-67
2023/08/24 04:33:41;;;;;;;11.77;5.37;;;15.40;99.90;;;;;;4992044;28;20185;-67
2023/08/24 04:36:07;;;;;;;10.10;5.27;;;15.40;99.90;;;;;;4991108;28;20177;-67
2023/08/24 04:38:32;;;;;;;8.70;5.50;;;15.40;99.90;;;;;;4990671;28;20655;-66
2023/08/24 04:40:58;;;;;;;7.53;4.93;;;15.40;99.90;;;;;;4991599;28;20185;-67
2023/08/24 04:43:24;;;;;;;8.90;4.70;;;15.40;99.90;;;;;;4991239;28;20204;-66
2023/08/24 04:45:54;;;;;;;9.57;5.00;;;15.40;99.90;;;;;;4991185;28;20173;-66
2023/08/24 04:48:23;;;;;;;17.37;5.27;;;15.40;99.90;;;;;;4989689;28;20209;-67
2023/08/24 04:50:50;;;;;;;8.57;5.33;;;15.40;99.90;;;;;;4991276;28;20181;-66
2023/08/24 04:53:17;;;;;;;13.87;5.20;;;15.40;99.90;;;;;;4991395;28;20185;-67
2023/08/24 04:55:43;;;;;;;9.27;5.07;;;15.50;99.90;;;;;;4991123;28;20244;-66
2023/08/24 04:58:09;;;;;;;10.30;5.47;;;15.40;99.90;;;;;;4990608;28;20216;-66
2023/08/24 05:00:36;;;;;;;13.37;5.57;;;15.40;99.90;;;;;;4991008;28;20195;-67
2023/08/24 05:03:02;;;;;;;14.87;5.37;;;15.50;99.90;;;;;;4991403;28;20275;-66
2023/08/24 05:05:32;;;;;;;9.57;5.53;;;15.50;99.90;;;;;;4990950;28;20681;-67
2023/08/24 05:07:59;;;;;;;12.63;5.80;;;15.60;99.90;;;;;;4992770;28;20177;-66
2023/08/24 05:10:25;;;;;;;11.63;5.83;;;15.60;99.90;;;;;;4995485;28;20177;-66
2023/08/24 05:12:50;;;;;;;10.57;5.63;;;15.70;99.90;;;;;;4990863;28;20208;-66
2023/08/24 05:15:16;;;;;;;13.67;4.90;;;15.80;99.90;;;;;;4990860;28;20189;-67
2023/08/24 05:17:41;;;;;;;13.60;5.33;;;15.90;99.90;;;;;;4992907;28;20268;-66
2023/08/24 05:20:08;;;;;;;8.87;5.63;;;16.00;99.90;;;;;;4993227;28;20670;-67
2023/08/24 05:22:34;;;;;;;14.13;6.00;;;16.10;99.90;;;;;;4990782;28;20724;-66
2023/08/24 05:25:00;;;;;;;9.37;5.40;;;16.10;99.90;;;;;;4990648;28;20227;-67
2023/08/24 05:27:25;;;;;;;12.37;5.77;;;16.20;99.90;;;;;;4990175;28;20192;-66
2023/08/24 05:29:51;;;;;;;13.30;5.50;;;16.20;99.90;;;;;;4990587;28;20240;-66
2023/08/24 05:32:17;;;;;;;8.67;4.93;;;16.30;99.90;;;;;;4990816;28;20173;-67
2023/08/24 05:34:42;;;;;;;10.90;5.30;;;16.40;99.90;;;;;;4990617;28;20173;-67
2023/08/24 05:37:08;;;;;;;9.73;5.03;;;16.50;99.90;;;;;;4990131;28;20716;-66
2023/08/24 05:39:33;;;;;;;12.73;5.80;;;16.60;99.90;;;;;;5001221;28;20681;-67
2023/08/24 05:41:59;;;;;;;13.80;5.47;;;16.70;99.90;;;;;;5010247;28;20255;-66
2023/08/24 05:44:24;;;;;;;7.73;5.00;;;16.70;99.90;;;;;;5010190;28;20207;-67
2023/08/24 05:46:50;;;;;;;10.23;5.33;;;16.70;99.90;;;;;;5009723;28;20192;-67
2023/08/24 05:49:15;;;;;;;11.03;4.90;;;16.70;99.90;;;;;;4993102;28;20275;-67
2023/08/24 05:51:41;;;;;;;10.03;5.47;;;16.70;99.90;;;;;;5003850;28;20192;-67
2023/08/24 05:54:07;;;;;;;12.93;5.53;;;16.70;99.90;;;;;;5010132;28;20169;-66
2023/08/24 05:56:32;;;;;;;8.63;5.10;;;16.80;99.90;;;;;;5010053;28;20268;-66
2023/08/24 05:58:58;;;;;;;17.70;5.37;;;16.80;99.90;;;;;;5009424;28;20236;-67
2023/08/24 06:01:24;;;;;;;7.53;5.07;;;16.90;99.90;;;;;;5010005;28;20172;-66
2023/08/24 06:03:50;;;;;;;12.13;5.50;;;16.90;99.90;;;;;;5009876;28;20192;-67
2023/08/24 06:06:15;;;;;;;12.13;5.80;;;16.90;99.90;;;;;;5009961;28;21006;-67
2023/08/24 06:08:42;;;;;;;10.57;5.47;;;16.90;99.90;;;;;;4996339;28;20623;-66
2023/08/24 06:11:07;;;;;;;11.47;5.20;;;16.90;99.90;;;;;;5009847;28;20288;-66
2023/08/24 06:13:33;;;;;;;11.27;5.80;;;16.80;99.90;;;;;;4999028;28;20598;-65
2023/08/24 06:15:58;;;;;;;11.70;5.13;;;16.80;99.90;;;;;;5000487;28;20260;-66
2023/08/24 06:18:24;;;;;;;10.17;5.70;;;16.90;99.90;;;;;;5005001;28;20200;-65
2023/08/24 06:20:49;;;;;;;12.80;5.83;;;17.00;99.90;;;;;;5009926;28;20185;-66
2023/08/24 06:23:18;;;;;;;9.83;5.33;;;16.90;99.90;;;;;;5009818;28;20180;-66
2023/08/24 06:25:43;;;;;;;15.33;6.40;;;17.00;99.90;;;;;;5025294;28;20172;-65
2023/08/24 06:28:10;;;;;;;15.70;6.30;;;16.90;99.90;;;;;;5024327;28;20226;-66
2023/08/24 06:30:43;;;;;;;13.43;6.40;;;16.90;99.90;;;;;;5022389;28;20177;-66
2023/08/24 06:33:10;;;;;;;11.33;6.07;;;17.00;99.90;;;;;;4990672;28;20192;-66
2023/08/24 06:35:36;;;;;;;10.57;6.00;;;17.00;99.90;;;;;;4990701;28;20225;-66
2023/08/24 06:38:02;;;;;;;10.97;6.03;;;17.00;99.90;;;;;;4993099;28;20212;-66
2023/08/24 06:40:28;;;;;;;24.97;7.47;;;17.00;99.90;;;;;;4994015;28;20196;-65
2023/08/24 06:42:53;;;;;;;17.87;6.60;;;17.00;99.90;;;;;;4993698;28;20667;-66
2023/08/24 06:45:19;;;;;;;13.90;6.77;;;17.00;99.90;;;;;;4993901;28;20209;-66
2023/08/24 06:47:45;;;;;;;12.27;6.27;;;17.00;99.90;;;;;;4993248;28;20550;-66
2023/08/24 06:50:10;;;;;;;14.00;6.47;;;17.10;99.90;;;;;;5008274;28;20686;-66
2023/08/24 06:52:36;;;;;;;16.53;6.80;;;17.10;99.90;;;;;;4993642;28;20181;-66
2023/08/24 06:55:02;;;;;;;11.97;6.07;;;17.20;99.90;;;;;;4993314;28;20177;-65
2023/08/24 06:57:27;;;;;;;11.20;5.83;;;17.30;99.90;;;;;;4992966;28;20519;-65
2023/08/24 06:59:53;;;;;;;15.00;6.37;;;17.30;99.90;;;;;;4993537;28;20209;-65
2023/08/24 07:02:18;;;;;;;12.67;6.00;;;17.40;99.90;;;;;;4993233;28;20284;-65
2023/08/24 07:04:44;;;;;;;19.87;6.73;;;17.50;99.90;;;;;;5008342;28;20181;-65
2023/08/24 07:07:10;;;;;;;14.23;6.50;;;17.60;99.90;;;;;;5007722;28;20176;-66
2023/08/24 07:09:35;;;;;;;14.27;7.00;;;17.80;99.90;;;;;;4993026;28;20577;-66
2023/08/24 07:12:06;;;;;;;20.07;6.40;;;17.90;99.90;;;;;;4993445;28;20239;-66
2023/08/24 07:14:33;;;;;;;18.00;6.63;;;18.10;99.90;;;;;;4993162;28;20184;-67
2023/08/24 07:16:58;;;;;;;17.17;6.87;;;18.20;99.90;;;;;;5007600;28;20173;-67
2023/08/24 07:19:24;;;;;;;16.40;6.33;;;18.40;99.90;;;;;;4992827;28;20694;-67
2023/08/24 07:21:49;;;;;;;11.60;5.90;;;18.50;99.90;;;;;;4993202;28;20586;-67
2023/08/24 07:24:16;;;;;;;13.33;6.50;;;18.70;99.90;;;;;;4993132;28;20643;-67
2023/08/24 07:26:42;;;;;;;16.30;6.73;;;19.00;99.90;;;;;;4993037;28;20180;-67
2023/08/24 07:29:08;;;;;;;15.67;6.13;;;19.20;99.90;;;;;;4992589;28;20221;-66
2023/08/24 07:31:33;;;;;;;16.20;6.30;;;19.50;99.90;;;;;;4992910;28;20180;-66
2023/08/24 07:33:59;;;;;;;14.03;5.33;;;19.80;99.90;;;;;;4992627;28;20256;-67
2023/08/24 07:36:24;;;;;;;17.33;6.30;;;20.00;99.90;;;;;;4992715;28;20252;-66
2023/08/24 07:38:50;;;;;;;23.77;5.97;;;20.20;99.90;;;;;;4992072;28;20216;-66
2023/08/24 07:41:18;;;;;;;17.17;5.90;;;20.50;99.90;;;;;;4992834;28;20271;-67
2023/08/24 07:43:43;;;;;;;18.20;6.30;;;20.80;99.90;;;;;;4992567;28;20181;-67
2023/08/24 07:46:09;;;;;;;16.30;5.90;;;21.20;99.90;;;;;;4992588;28;20173;-67
2023/08/24 07:48:35;;;;;;;14.80;4.57;;;21.40;99.90;;;;;;4991706;28;20259;-67
2023/08/24 07:51:00;;;;;;;13.00;4.93;;;21.60;99.90;;;;;;4992278;28;20178;-67
2023/08/24 07:53:26;;;;;;;12.17;4.70;;;21.90;99.90;;;;;;4992416;28;20170;-67
2023/08/24 07:55:53;;;;;;;9.70;4.60;;;22.10;99.90;;;;;;4992310;28;20187;-67
2023/08/24 07:58:19;;;;;;;10.23;4.70;;;22.40;99.90;;;;;;4991776;28;20188;-67
2023/08/24 08:00:45;;;;;;;16.63;4.90;;;22.50;99.90;;;;;;4992162;28;20181;-67
2023/08/24 08:03:10;;;;;;;11.30;4.60;;;22.80;99.90;;;;;;4992442;28;20718;-67
2023/08/24 08:05:36;;;;;;;17.80;4.73;;;22.90;99.90;;;;;;4991940;28;20190;-67
2023/08/24 08:08:02;;;;;;;10.65;4.47;;;23.00;99.90;;;;;;4995726;28;20418;-67
2023/08/24 08:10:28;;;;;;;13.90;4.07;;;23.20;99.90;;;;;;5011506;28;20174;-67
2023/08/24 08:12:53;;;;;;;14.40;4.20;;;23.50;99.90;;;;;;5011622;28;20180;-66
2023/08/24 08:15:19;;;;;;;10.80;4.73;;;23.80;99.90;;;;;;5011491;28;20192;-67
2023/08/24 08:17:45;;;;;;;11.67;3.97;;;24.10;99.90;;;;;;5011006;28;20173;-67
2023/08/24 08:20:13;;;;;;;8.00;3.63;;;24.40;99.90;;;;;;5010956;28;20482;-67
2023/08/24 08:22:39;;;;;;;10.03;3.60;;;24.70;99.90;;;;;;5011571;28;20181;-67
2023/08/24 08:25:06;;;;;;;13.10;3.60;;;24.90;99.90;;;;;;5011449;28;20231;-67
2023/08/24 08:27:32;;;;;;;8.77;3.93;;;25.10;99.90;;;;;;5010872;28;20263;-66
2023/08/24 08:29:58;;;;;;;6.40;3.40;;;25.10;99.90;;;;;;5011173;28;20576;-67
2023/08/24 08:32:26;;;;;;;9.00;3.90;;;25.20;99.90;;;;;;5011305;28;20181;-67
2023/08/24 08:34:53;;;;;;;13.27;3.73;;;25.40;99.90;;;;;;5011297;28;20335;-67
2023/08/24 08:37:19;;;;;;;10.13;3.17;;;25.60;99.90;;;;;;5010932;28;20234;-66
2023/08/24 08:39:44;;;;;;;7.60;3.10;;;25.90;99.90;;;;;;5011005;28;20204;-67
2023/08/24 08:42:16;;;;;;;8.47;3.63;;;26.00;99.90;;;;;;5011033;28;20242;-67
2023/08/24 08:44:43;;;;;;;5.93;3.27;;;26.10;99.90;;;;;;5011273;28;20505;-67
2023/08/24 08:47:10;;;;;;;11.33;3.37;;;26.20;99.90;;;;;;5010502;28;20213;-67
2023/08/24 08:49:37;;;;;;;6.07;2.87;;;26.30;99.90;;;;;;5025877;28;20234;-67
2023/08/24 08:52:03;;;;;;;7.47;2.50;;;26.50;99.90;;;;;;5026324;28;20658;-67
2023/08/24 08:54:29;;;;;;;6.50;2.90;;;26.60;99.90;;;;;;5010749;28;20176;-68
2023/08/24 08:56:54;;;;;;;7.07;2.63;;;26.70;99.90;;;;;;5025455;28;20184;-67
2023/08/24 08:59:20;;;;;;;8.20;2.97;;;26.90;99.90;;;;;;5010509;28;20197;-67
2023/08/24 09:01:46;;;;;;;5.63;2.60;;;27.20;99.90;;;;;;5025786;28;20182;-68
2023/08/24 09:04:11;;;;;;;3.87;2.67;;;27.60;99.90;;;;;;5025777;28;20562;-68
2023/08/24 09:06:37;;;;;;;9.60;4.40;;;28.40;99.90;;;;;;5025844;28;20227;-70
2023/08/24 09:09:04;;;;;;;6.13;2.60;;;29.00;99.90;;;;;;5024882;28;20203;-68
2023/08/24 09:11:30;;;;;;;13.80;6.93;;;29.60;99.90;;;;;;5025713;28;20164;-66
2023/08/24 09:13:55;;;;;;;4.27;2.20;;;29.80;99.90;;;;;;5010770;28;20550;-68
2023/08/24 09:16:21;;;;;;;4.53;2.50;;;29.70;99.90;;;;;;5010518;28;20169;-69
2023/08/24 09:18:47;;;;;;;9.83;2.60;;;29.90;99.90;;;;;;5022912;28;20200;-69
2023/08/24 09:21:14;;;;;;;6.93;2.40;;;30.40;99.90;;;;;;5010499;28;20180;-69
2023/08/24 09:23:55;;;;;;;4.90;2.38;;;31.10;99.90;;;;;;5025351;28;20176;-70
2023/08/24 09:26:47;;;;;;;6.03;2.40;;;31.70;99.90;;;;;;5024259;28;20212;-69
2023/08/24 09:29:14;;;;;;;5.38;2.63;;;32.40;99.90;;;;;;5008759;28;20237;-69
2023/08/24 09:31:39;;;;;;;8.63;2.63;;;33.00;99.90;;;;;;5010485;28;20174;-70
2023/08/24 09:34:06;;;;;;;11.82;2.50;;;33.50;99.90;;;;;;5025502;28;20533;-70
2023/08/24 09:36:35;;;;;;;6.55;2.00;;;33.90;99.90;;;;;;5025630;28;20218;-69
2023/08/24 09:39:00;;;;;;;7.80;2.13;;;34.00;99.90;;;;;;5009717;28;20686;-69
2023/08/24 09:41:39;;;;;;;3.72;2.08;;;34.20;99.90;;;;;;5025325;28;20177;-70
2023/08/24 09:44:05;;;;;;;7.15;2.13;;;34.20;99.90;;;;;;5010053;28;20179;-70
2023/08/24 09:46:31;;;;;;;4.53;2.22;;;34.40;99.90;;;;;;5010249;28;20173;-69
2023/08/24 09:48:59;;;;;;;3.33;1.75;;;34.90;99.90;;;;;;5009440;28;20251;-66
2023/08/24 09:51:25;;;;;;;3.97;1.92;;;34.90;99.90;;;;;;5010190;28;20728;-67
2023/08/24 09:53:51;;;;;;;3.38;1.73;;;34.70;99.90;;;;;;5025015;28;20214;-67
2023/08/24 09:56:16;;;;;;;5.60;2.25;;;34.80;99.90;;;;;;5010229;28;20252;-67
2023/08/24 09:58:42;;;;;;;4.32;2.00;;;34.60;99.90;;;;;;5024629;28;20250;-68
2023/08/24 10:01:07;;;;;;;3.50;2.08;;;34.60;99.90;;;;;;5025178;28;20181;-66
2023/08/24 10:03:33;;;;;;;2.95;1.95;;;34.40;99.90;;;;;;5025352;28;20191;-67
2023/08/24 10:06:00;;;;;;;7.35;2.05;;;33.80;99.90;;;;;;5025323;28;20176;-67
2023/08/24 10:08:31;;;;;;;6.05;2.20;;;34.10;99.90;;;;;;5024193;28;20215;-67
2023/08/24 10:10:59;;;;;;;4.03;1.85;;;34.10;99.90;;;;;;5026233;28;20556;-68
2023/08/24 10:13:46;;;;;;;3.42;2.10;;;34.30;99.90;;;;;;5028612;28;20187;-67
2023/08/24 10:16:12;;;;;;;3.45;1.73;;;34.20;99.90;;;;;;5013789;28;20343;-68
2023/08/24 10:18:38;;;;;;;8.70;2.25;;;34.00;99.90;;;;;;5028089;28;20730;-68
2023/08/24 10:21:03;;;;;;;5.32;2.20;;;33.50;99.90;;;;;;5028846;28;20169;-67
2023/08/24 10:23:29;;;;;;;4.47;2.05;;;33.20;99.90;;;;;;5013591;28;20266;-67
2023/08/24 10:25:55;;;;;;;6.65;1.92;;;33.10;99.90;;;;;;5013689;28;20269;-67
2023/08/24 10:28:20;;;;;;;5.07;1.40;;;32.90;99.90;;;;;;5012719;28;20312;-67
2023/08/24 10:30:46;;;;;;;4.95;1.95;;;32.50;99.90;;;;;;5028711;28;20174;-68
2023/08/24 10:33:13;;;;;;;7.10;1.88;;;32.10;99.90;;;;;;5028583;28;20181;-68
2023/08/24 10:35:39;;;;;;;4.38;2.03;;;31.30;99.90;;;;;;5028372;28;20173;-67
2023/08/24 10:38:05;;;;;;;4.88;1.85;;;31.00;99.90;;;;;;5012947;28;20173;-68
2023/08/24 10:40:35;;;;;;;5.22;1.88;;;31.20;99.90;;;;;;5013289;28;20183;-68
2023/08/24 10:43:07;;;;;;;3.40;1.80;;;31.30;99.90;;;;;;5028578;28;20255;-67
2023/08/24 10:45:57;;;;;;;3.85;1.85;;;31.30;99.90;;;;;;5028085;28;20212;-67
2023/08/24 10:48:24;;;;;;;5.45;1.77;;;31.00;99.90;;;;;;5011439;28;20197;-67
2023/08/24 10:51:21;;;;;;;3.85;1.83;;;31.10;99.90;;;;;;5028001;28;20248;-67
2023/08/24 10:54:00;;;;;;;7.53;2.47;;;30.50;99.90;;;;;;5012840;28;20637;-70
2023/08/24 10:56:39;;;;;;;23.90;12.20;;;30.00;99.90;;;;;;5028275;28;20176;-67
2023/08/24 10:59:17;;;;;;;7.37;2.27;;;29.50;99.90;;;;;;5012500;28;20212;-67
2023/08/24 11:02:04;;;;;;;8.10;2.20;;;29.20;99.90;;;;;;5028168;28;20626;-68
2023/08/24 11:04:29;;;;;;;3.80;2.33;;;29.40;99.90;;;;;;5009577;28;20188;-68
2023/08/24 11:06:59;;;;;;;7.43;2.23;;;29.30;99.90;;;;;;5012185;28;20161;-66
2023/08/24 11:09:25;;;;;;;2.67;1.90;;;29.40;99.90;;;;;;5012681;28;20759;-68
2023/08/24 11:12:00;;;;;;;5.03;2.20;;;29.60;99.90;;;;;;5012994;28;20255;-66
2023/08/24 11:14:26;;;;;;;3.73;2.10;;;29.50;99.90;;;;;;5013324;28;20180;-68
2023/08/24 11:16:52;;;;;;;3.33;1.87;;;29.50;99.90;;;;;;5011985;28;20739;-68
2023/08/24 11:19:17;;;;;;;3.67;2.00;;;29.50;99.90;;;;;;5012474;28;20248;-68
2023/08/24 11:21:45;;;;;;;7.53;2.10;;;29.70;99.90;;;;;;5012148;28;20180;-68
2023/08/24 11:24:13;;;;;;;7.27;2.17;;;29.60;99.90;;;;;;5012558;28;20188;-68
2023/08/24 11:26:49;;;;;;;5.03;2.00;;;29.20;99.90;;;;;;5027792;28;20184;-68
2023/08/24 11:29:18;;;;;;;4.77;2.03;;;29.50;99.90;;;;;;5012016;28;20301;-68
2023/08/24 11:31:44;;;;;;;7.00;2.27;;;29.60;99.90;;;;;;5012347;28;20661;-68
2023/08/24 11:34:10;;;;;;;4.03;1.90;;;29.70;99.90;;;;;;5012125;28;20260;-68
2023/08/24 11:37:02;;;;;;;3.67;2.03;;;29.70;99.90;;;;;;5027210;28;20177;-68
2023/08/24 11:39:31;;;;;;;5.90;2.20;;;30.00;99.90;;;;;;5009768;28;20243;-68
2023/08/24 11:42:04;;;;;;;3.37;1.80;;;30.30;99.90;;;;;;5011257;28;20185;-68
2023/08/24 11:44:30;;;;;;;6.30;2.17;;;30.40;99.90;;;;;;5012462;28;20208;-68
2023/08/24 11:46:57;;;;;;;3.20;1.80;;;30.50;99.90;;;;;;5026636;28;20256;-68
2023/08/24 11:49:23;;;;;;;3.87;1.57;;;30.50;99.90;;;;;;5011897;28;20205;-68
2023/08/24 11:51:49;;;;;;;4.27;1.97;;;30.70;99.90;;;;;;5012106;28;20195;-68
2023/08/24 11:54:17;;;;;;;5.70;2.20;;;30.70;99.90;;;;;;5026941;28;20200;-68
2023/08/24 11:56:43;;;;;;;8.07;1.80;;;30.60;99.90;;;;;;5026704;28;20191;-68
2023/08/24 11:59:12;;;;;;;5.23;1.70;;;30.60;99.90;;;;;;5011834;28;20205;-67
2023/08/24 12:01:38;;;;;;;3.87;2.20;;;30.60;99.90;;;;;;5026801;28;20191;-67
2023/08/24 12:04:04;;;;;;;6.57;1.60;;;30.80;99.90;;;;;;5026764;28;20227;-67
2023/08/24 12:06:30;;;;;;;6.33;1.87;;;30.90;99.90;;;;;;5012067;28;20185;-67
2023/08/24 12:08:56;;;;;;;4.83;2.07;;;31.00;99.90;;;;;;5010841;28;20212;-67
2023/08/24 12:11:26;;;;;;;6.03;2.00;;;31.10;99.90;;;;;;5026676;28;20195;-67
2023/08/24 12:13:54;;;;;;;4.40;2.00;;;31.10;99.90;;;;;;5011895;28;20173;-71
2023/08/24 12:16:20;;;;;;;3.80;1.90;;;31.20;99.90;;;;;;5011610;28;20603;-67
2023/08/24 12:18:48;;;;;;;6.80;2.30;;;30.90;99.90;;;;;;5010929;28;20235;-69
2023/08/24 12:21:14;;;;;;;4.40;1.80;;;30.70;99.90;;;;;;5011361;28;20196;-67
2023/08/24 12:23:39;;;;;;;3.53;1.70;;;30.40;99.90;;;;;;5011571;28;20215;-67
2023/08/24 12:26:07;;;;;;;3.67;1.90;;;30.00;99.90;;;;;;5011334;28;20224;-67
2023/08/24 12:28:33;;;;;;;3.10;1.90;;;29.90;99.90;;;;;;5010245;28;20632;-66
2023/08/24 12:31:01;;;;;;;7.17;2.30;;;29.90;99.90;;;;;;5011303;28;20181;-66
2023/08/24 12:33:31;;;;;;;4.83;1.80;;;29.90;99.90;;;;;;5010601;28;20251;-67
2023/08/24 12:35:58;;;;;;;3.40;2.07;;;29.80;99.90;;;;;;5011030;28;20197;-67
2023/08/24 12:38:24;;;;;;;6.43;1.70;;;29.90;99.90;;;;;;5010575;28;20243;-67
2023/08/24 12:40:49;;;;;;;12.50;2.27;;;30.10;99.90;;;;;;5011015;28;20216;-67
2023/08/24 12:43:15;;;;;;;21.00;2.37;;;29.90;99.90;;;;;;5011308;28;20181;-72